EWG3W EDDH-EDDF
Flight info
| Callsign | EWG3W |
|---|---|
| Flight time | 0h 44m |
| Altitude | 30000 |
| Route | AMLUH2G/33 AMLUH M852 DENIX DCT RIMET/N0459F310 T157 KOKEB/N0417F230 T157 KERAX KERAX5A |
| Aircraft | A319/M-SDE3FGHIRWY/LB1 |
Departure
| Time | 2026-05-05 16:06 |
|---|---|
| Airport | Hamburg Helmut Schmidt Airport (EDDH) |
Arrival
| Time | 2026-05-05 16:51 |
|---|---|
| Airport | Frankfurt Main Airport (EDDF) |
| Time | Latitude | Longitude | Altitude | Speed | Heading |
|---|---|---|---|---|---|
| 2026-05-05 15:31 | 53.63245 | 10.00361 | 48 ft | 0 kts | 86° |
| 2026-05-05 15:54 | 53.63245 | 10.00353 | 48 ft | 2 kts | 86° |
| 2026-05-05 15:54 | 53.63243 | 10.00321 | 48 ft | 3 kts | 86° |
| 2026-05-05 15:54 | 53.63242 | 10.00287 | 48 ft | 3 kts | 86° |
| 2026-05-05 15:54 | 53.63241 | 10.00253 | 43 ft | 3 kts | 86° |
| 2026-05-05 15:55 | 53.63241 | 10.00220 | 43 ft | 3 kts | 101° |
| 2026-05-05 15:55 | 53.63247 | 10.00189 | 48 ft | 3 kts | 135° |
| 2026-05-05 15:55 | 53.63260 | 10.00174 | 46 ft | 1 kts | 174° |
| 2026-05-05 15:55 | 53.63263 | 10.00173 | 46 ft | 0 kts | 175° |
| 2026-05-05 15:59 | 53.63245 | 10.00176 | 48 ft | 5 kts | 175° |
| 2026-05-05 15:59 | 53.63208 | 10.00180 | 48 ft | 7 kts | 175° |
| 2026-05-05 15:59 | 53.63134 | 10.00190 | 48 ft | 13 kts | 175° |
| 2026-05-05 15:59 | 53.63071 | 10.00186 | 48 ft | 10 kts | 201° |
| 2026-05-05 16:00 | 53.63018 | 10.00128 | 47 ft | 9 kts | 213° |
| 2026-05-05 16:00 | 53.62970 | 10.00078 | 47 ft | 8 kts | 212° |
| 2026-05-05 16:00 | 53.62925 | 10.00013 | 48 ft | 10 kts | 238° |
| 2026-05-05 16:00 | 53.62906 | 9.99947 | 46 ft | 6 kts | 243° |
| 2026-05-05 16:01 | 53.62897 | 9.99915 | 48 ft | 0 kts | 243° |
| 2026-05-05 16:02 | 53.62896 | 9.99913 | 48 ft | 0 kts | 243° |
| 2026-05-05 16:02 | 53.62889 | 9.99888 | 45 ft | 7 kts | 243° |
| 2026-05-05 16:02 | 53.62865 | 9.99759 | 45 ft | 15 kts | 288° |
| 2026-05-05 16:03 | 53.62892 | 9.99723 | 44 ft | 0 kts | 333° |
| 2026-05-05 16:05 | 53.62893 | 9.99722 | 44 ft | 1 kts | 333° |
| 2026-05-05 16:05 | 53.62984 | 9.99645 | 43 ft | 40 kts | 333° |
| 2026-05-05 16:06 | 53.63440 | 9.99251 | 47 ft | 104 kts | 332° |
| 2026-05-05 16:06 | 53.64254 | 9.98546 | 58 ft | 157 kts | 333° |
| 2026-05-05 16:06 | 53.65240 | 9.97684 | 596 ft | 159 kts | 335° |
| 2026-05-05 16:06 | 53.66235 | 9.96824 | 1277 ft | 161 kts | 335° |
| 2026-05-05 16:07 | 53.67273 | 9.95937 | 1737 ft | 179 kts | 336° |
| 2026-05-05 16:07 | 53.68446 | 9.94979 | 2199 ft | 195 kts | 340° |
| 2026-05-05 16:07 | 53.69814 | 9.94509 | 2699 ft | 207 kts | 2° |
| 2026-05-05 16:07 | 53.71293 | 9.94645 | 3339 ft | 217 kts | 4° |
| 2026-05-05 16:08 | 53.72713 | 9.95376 | 4166 ft | 218 kts | 38° |
| 2026-05-05 16:08 | 53.73525 | 9.97526 | 4953 ft | 225 kts | 73° |
| 2026-05-05 16:08 | 53.73805 | 10.00160 | 5760 ft | 230 kts | 78° |
| 2026-05-05 16:08 | 53.73980 | 10.02884 | 6538 ft | 238 kts | 95° |
| 2026-05-05 16:09 | 53.73530 | 10.05650 | 7073 ft | 256 kts | 118° |
| 2026-05-05 16:09 | 53.72636 | 10.08372 | 7535 ft | 279 kts | 121° |
| 2026-05-05 16:09 | 53.71642 | 10.11318 | 8316 ft | 288 kts | 121° |
| 2026-05-05 16:09 | 53.70480 | 10.14050 | 9169 ft | 292 kts | 139° |
| 2026-05-05 16:10 | 53.68782 | 10.15894 | 10019 ft | 292 kts | 162° |
| 2026-05-05 16:10 | 53.66767 | 10.16517 | 10541 ft | 304 kts | 181° |
| 2026-05-05 16:10 | 53.64565 | 10.16597 | 10813 ft | 327 kts | 182° |
| 2026-05-05 16:10 | 53.62219 | 10.16619 | 11181 ft | 345 kts | 182° |
| 2026-05-05 16:11 | 53.59798 | 10.16634 | 11851 ft | 351 kts | 182° |
| 2026-05-05 16:11 | 53.52331 | 10.16768 | 13965 ft | 364 kts | 181° |
| 2026-05-05 16:12 | 53.49786 | 10.16833 | 14611 ft | 368 kts | 181° |
| 2026-05-05 16:12 | 53.44617 | 10.16974 | 15907 ft | 374 kts | 181° |
| 2026-05-05 16:13 | 53.36725 | 10.17169 | 17854 ft | 384 kts | 182° |
| 2026-05-05 16:13 | 53.34038 | 10.17235 | 18463 ft | 388 kts | 182° |
| 2026-05-05 16:13 | 53.31325 | 10.17299 | 19051 ft | 391 kts | 182° |
| 2026-05-05 16:14 | 53.25855 | 10.17424 | 20257 ft | 395 kts | 182° |
| 2026-05-05 16:14 | 53.20324 | 10.17566 | 21399 ft | 399 kts | 182° |
| 2026-05-05 16:15 | 53.14733 | 10.17712 | 22476 ft | 404 kts | 182° |
| 2026-05-05 16:15 | 53.09076 | 10.17853 | 23523 ft | 408 kts | 182° |
| 2026-05-05 16:16 | 53.03409 | 10.17990 | 24386 ft | 411 kts | 183° |
| 2026-05-05 16:16 | 52.97648 | 10.18128 | 25247 ft | 415 kts | 183° |
| 2026-05-05 16:17 | 52.91835 | 10.18275 | 26102 ft | 419 kts | 183° |
| 2026-05-05 16:17 | 52.88948 | 10.18343 | 26511 ft | 420 kts | 183° |
| 2026-05-05 16:18 | 52.83058 | 10.18475 | 27320 ft | 424 kts | 183° |
| 2026-05-05 16:18 | 52.80098 | 10.18545 | 27710 ft | 426 kts | 183° |
| 2026-05-05 16:18 | 52.74160 | 10.18419 | 28460 ft | 425 kts | 192° |
| 2026-05-05 16:19 | 52.71227 | 10.17690 | 28849 ft | 427 kts | 193° |
| 2026-05-05 16:19 | 52.68279 | 10.16946 | 29224 ft | 429 kts | 193° |
| 2026-05-05 16:19 | 52.62390 | 10.15458 | 29844 ft | 431 kts | 193° |
| 2026-05-05 16:20 | 52.56464 | 10.13971 | 30344 ft | 430 kts | 193° |
| 2026-05-05 16:20 | 52.50562 | 10.12497 | 30809 ft | 428 kts | 193° |
| 2026-05-05 16:22 | 52.36081 | 10.08879 | 30878 ft | 418 kts | 193° |
| 2026-05-05 16:23 | 52.24601 | 10.06032 | 30868 ft | 418 kts | 192° |
| 2026-05-05 16:23 | 52.15957 | 10.03897 | 30848 ft | 418 kts | 192° |
| 2026-05-05 16:24 | 52.10235 | 10.02486 | 30844 ft | 418 kts | 192° |
| 2026-05-05 16:25 | 52.01597 | 10.00373 | 30837 ft | 418 kts | 192° |
| 2026-05-05 16:25 | 51.92959 | 9.98257 | 30818 ft | 418 kts | 192° |
| 2026-05-05 16:26 | 51.87184 | 9.96858 | 30038 ft | 420 kts | 191° |
| 2026-05-05 16:26 | 51.81415 | 9.95463 | 29144 ft | 423 kts | 191° |
| 2026-05-05 16:27 | 51.78493 | 9.94755 | 28696 ft | 424 kts | 191° |
| 2026-05-05 16:27 | 51.75565 | 9.94047 | 28255 ft | 426 kts | 191° |
| 2026-05-05 16:27 | 51.72631 | 9.93336 | 27816 ft | 427 kts | 191° |
| 2026-05-05 16:27 | 51.69685 | 9.92621 | 27387 ft | 428 kts | 191° |
| 2026-05-05 16:28 | 51.66730 | 9.91905 | 26965 ft | 429 kts | 191° |
| 2026-05-05 16:28 | 51.63775 | 9.91193 | 26549 ft | 428 kts | 191° |
| 2026-05-05 16:28 | 51.60832 | 9.90486 | 26141 ft | 426 kts | 191° |
| 2026-05-05 16:28 | 51.57936 | 9.89795 | 25737 ft | 424 kts | 191° |
| 2026-05-05 16:29 | 51.55013 | 9.89099 | 25340 ft | 422 kts | 190° |
| 2026-05-05 16:29 | 51.52114 | 9.88405 | 24947 ft | 420 kts | 190° |
| 2026-05-05 16:29 | 51.49217 | 9.87710 | 24563 ft | 418 kts | 190° |
| 2026-05-05 16:29 | 51.46367 | 9.86805 | 24174 ft | 415 kts | 198° |
| 2026-05-05 16:30 | 51.43617 | 9.85413 | 23825 ft | 413 kts | 199° |
| 2026-05-05 16:30 | 51.40956 | 9.83864 | 23476 ft | 411 kts | 204° |
| 2026-05-05 16:30 | 51.38334 | 9.82059 | 23086 ft | 410 kts | 204° |
| 2026-05-05 16:30 | 51.35733 | 9.80211 | 22667 ft | 408 kts | 205° |
| 2026-05-05 16:31 | 51.33133 | 9.78334 | 22257 ft | 418 kts | 205° |
| 2026-05-05 16:31 | 51.30419 | 9.76369 | 21855 ft | 435 kts | 205° |
| 2026-05-05 16:31 | 51.27644 | 9.74368 | 21468 ft | 439 kts | 205° |
| 2026-05-05 16:31 | 51.24857 | 9.72373 | 21074 ft | 439 kts | 205° |
| 2026-05-05 16:32 | 51.22073 | 9.70394 | 20691 ft | 437 kts | 204° |
| 2026-05-05 16:32 | 51.19293 | 9.68427 | 20310 ft | 436 kts | 204° |
| 2026-05-05 16:32 | 51.16527 | 9.66476 | 19940 ft | 434 kts | 204° |
| 2026-05-05 16:32 | 51.13765 | 9.64530 | 19569 ft | 433 kts | 204° |
| 2026-05-05 16:33 | 51.11940 | 9.63245 | 19326 ft | 432 kts | 204° |
| 2026-05-05 16:33 | 51.09201 | 9.61320 | 18969 ft | 430 kts | 204° |
| 2026-05-05 16:33 | 51.06468 | 9.59402 | 18611 ft | 428 kts | 204° |
| 2026-05-05 16:33 | 51.03739 | 9.57486 | 18255 ft | 426 kts | 204° |
| 2026-05-05 16:34 | 51.01030 | 9.55584 | 17876 ft | 425 kts | 204° |
| 2026-05-05 16:34 | 50.98335 | 9.53689 | 17475 ft | 423 kts | 204° |
| 2026-05-05 16:34 | 50.95651 | 9.51800 | 17081 ft | 420 kts | 204° |
| 2026-05-05 16:34 | 50.92979 | 9.49923 | 16680 ft | 418 kts | 204° |
| 2026-05-05 16:35 | 50.90318 | 9.48069 | 16294 ft | 416 kts | 204° |
| 2026-05-05 16:35 | 50.87705 | 9.46253 | 15912 ft | 414 kts | 204° |
| 2026-05-05 16:35 | 50.85074 | 9.44425 | 15536 ft | 412 kts | 204° |
| 2026-05-05 16:35 | 50.82450 | 9.42603 | 15159 ft | 410 kts | 204° |
| 2026-05-05 16:36 | 50.79851 | 9.40797 | 14794 ft | 408 kts | 204° |
| 2026-05-05 16:36 | 50.77261 | 9.38996 | 14432 ft | 406 kts | 204° |
| 2026-05-05 16:36 | 50.74674 | 9.37201 | 14070 ft | 405 kts | 203° |
| 2026-05-05 16:36 | 50.72120 | 9.35428 | 13705 ft | 394 kts | 204° |
| 2026-05-05 16:37 | 50.69658 | 9.33719 | 13331 ft | 380 kts | 203° |
| 2026-05-05 16:37 | 50.67263 | 9.32060 | 12925 ft | 374 kts | 203° |
| 2026-05-05 16:37 | 50.64879 | 9.30410 | 12535 ft | 372 kts | 203° |
| 2026-05-05 16:37 | 50.62539 | 9.28795 | 12150 ft | 371 kts | 203° |
| 2026-05-05 16:38 | 50.60187 | 9.27176 | 11770 ft | 367 kts | 203° |
| 2026-05-05 16:38 | 50.57896 | 9.25604 | 11437 ft | 353 kts | 203° |
| 2026-05-05 16:38 | 50.55681 | 9.24086 | 11134 ft | 339 kts | 203° |
| 2026-05-05 16:38 | 50.53550 | 9.22626 | 10839 ft | 327 kts | 203° |
| 2026-05-05 16:39 | 50.51493 | 9.21217 | 10545 ft | 317 kts | 202° |
| 2026-05-05 16:39 | 50.49488 | 9.19844 | 10257 ft | 314 kts | 202° |
| 2026-05-05 16:39 | 50.47498 | 9.18484 | 9968 ft | 309 kts | 202° |
| 2026-05-05 16:39 | 50.45551 | 9.17154 | 9725 ft | 300 kts | 202° |
| 2026-05-05 16:40 | 50.43689 | 9.15880 | 9466 ft | 292 kts | 202° |
| 2026-05-05 16:40 | 50.41845 | 9.14619 | 9197 ft | 285 kts | 202° |
| 2026-05-05 16:40 | 50.40050 | 9.13394 | 8941 ft | 279 kts | 203° |
| 2026-05-05 16:40 | 50.38285 | 9.12193 | 8676 ft | 273 kts | 203° |
| 2026-05-05 16:41 | 50.36546 | 9.11009 | 8413 ft | 271 kts | 203° |
| 2026-05-05 16:41 | 50.34820 | 9.09833 | 8165 ft | 270 kts | 203° |
| 2026-05-05 16:41 | 50.33104 | 9.08665 | 7917 ft | 267 kts | 203° |
| 2026-05-05 16:41 | 50.31416 | 9.07518 | 7675 ft | 262 kts | 203° |
| 2026-05-05 16:42 | 50.29765 | 9.06396 | 7478 ft | 256 kts | 203° |
| 2026-05-05 16:42 | 50.28152 | 9.05301 | 7279 ft | 250 kts | 203° |
| 2026-05-05 16:42 | 50.26560 | 9.04225 | 7083 ft | 246 kts | 203° |
| 2026-05-05 16:42 | 50.24996 | 9.03169 | 6883 ft | 245 kts | 203° |
| 2026-05-05 16:43 | 50.23431 | 9.02111 | 6682 ft | 244 kts | 203° |
| 2026-05-05 16:43 | 50.21890 | 9.01070 | 6493 ft | 244 kts | 203° |
| 2026-05-05 16:43 | 50.20339 | 9.00019 | 6302 ft | 243 kts | 203° |
| 2026-05-05 16:43 | 50.18855 | 8.98787 | 6098 ft | 243 kts | 218° |
| 2026-05-05 16:44 | 50.17610 | 8.96993 | 5895 ft | 243 kts | 223° |
| 2026-05-05 16:44 | 50.16407 | 8.95135 | 5687 ft | 243 kts | 224° |
| 2026-05-05 16:44 | 50.15208 | 8.93283 | 5493 ft | 242 kts | 224° |
| 2026-05-05 16:44 | 50.14027 | 8.91460 | 5285 ft | 235 kts | 224° |
| 2026-05-05 16:45 | 50.13085 | 8.89424 | 5088 ft | 233 kts | 245° |
| 2026-05-05 16:45 | 50.12532 | 8.87057 | 4980 ft | 233 kts | 250° |
| 2026-05-05 16:45 | 50.12000 | 8.84684 | 4728 ft | 228 kts | 249° |
| 2026-05-05 16:45 | 50.11468 | 8.82402 | 4411 ft | 219 kts | 249° |
| 2026-05-05 16:46 | 50.10958 | 8.80240 | 4111 ft | 211 kts | 249° |
| 2026-05-05 16:46 | 50.10451 | 8.78095 | 3810 ft | 205 kts | 249° |
| 2026-05-05 16:46 | 50.09973 | 8.76070 | 3527 ft | 199 kts | 249° |
| 2026-05-05 16:46 | 50.09500 | 8.74068 | 3283 ft | 194 kts | 250° |
| 2026-05-05 16:47 | 50.09036 | 8.72111 | 2979 ft | 189 kts | 250° |
| 2026-05-05 16:47 | 50.08587 | 8.70213 | 2707 ft | 183 kts | 250° |
| 2026-05-05 16:47 | 50.08152 | 8.68379 | 2454 ft | 178 kts | 250° |
| 2026-05-05 16:47 | 50.07728 | 8.66594 | 2206 ft | 174 kts | 251° |
| 2026-05-05 16:48 | 50.07317 | 8.64862 | 1975 ft | 168 kts | 251° |
| 2026-05-05 16:48 | 50.06927 | 8.63224 | 1729 ft | 152 kts | 252° |
| 2026-05-05 16:48 | 50.06579 | 8.61762 | 1541 ft | 142 kts | 253° |
| 2026-05-05 16:48 | 50.06234 | 8.60318 | 1350 ft | 145 kts | 251° |
| 2026-05-05 16:49 | 50.05874 | 8.58811 | 1153 ft | 147 kts | 251° |
| 2026-05-05 16:49 | 50.05525 | 8.57361 | 937 ft | 139 kts | 251° |
| 2026-05-05 16:49 | 50.05208 | 8.55960 | 758 ft | 136 kts | 252° |
| 2026-05-05 16:49 | 50.04893 | 8.54592 | 581 ft | 133 kts | 249° |
| 2026-05-05 16:50 | 50.04550 | 8.53234 | 392 ft | 137 kts | 250° |
| 2026-05-05 16:50 | 50.04237 | 8.51931 | 335 ft | 110 kts | 249° |
| 2026-05-05 16:50 | 50.04028 | 8.51057 | 328 ft | 70 kts | 249° |
| 2026-05-05 16:50 | 50.03858 | 8.50434 | 321 ft | 52 kts | 235° |
| 2026-05-05 16:51 | 50.03695 | 8.50200 | 320 ft | 19 kts | 216° |
| 2026-05-05 16:51 | 50.03625 | 8.50268 | 325 ft | 13 kts | 84° |
| 2026-05-05 16:51 | 50.03654 | 8.50392 | 325 ft | 11 kts | 70° |
| 2026-05-05 16:51 | 50.03678 | 8.50494 | 328 ft | 10 kts | 69° |
| 2026-05-05 16:52 | 50.03702 | 8.50591 | 328 ft | 10 kts | 69° |
| 2026-05-05 16:52 | 50.03736 | 8.50736 | 332 ft | 19 kts | 70° |
| 2026-05-05 16:52 | 50.03793 | 8.50973 | 335 ft | 27 kts | 69° |
| 2026-05-05 16:52 | 50.03858 | 8.51245 | 332 ft | 27 kts | 69° |
| 2026-05-05 16:53 | 50.03923 | 8.51516 | 334 ft | 26 kts | 70° |
| 2026-05-05 16:53 | 50.03985 | 8.51777 | 336 ft | 25 kts | 69° |
| 2026-05-05 16:53 | 50.04042 | 8.52014 | 335 ft | 22 kts | 70° |
| 2026-05-05 16:53 | 50.04094 | 8.52230 | 348 ft | 21 kts | 69° |
| 2026-05-05 16:54 | 50.04148 | 8.52457 | 349 ft | 24 kts | 69° |
| 2026-05-05 16:54 | 50.04212 | 8.52726 | 356 ft | 29 kts | 69° |
| 2026-05-05 16:54 | 50.04289 | 8.53044 | 361 ft | 32 kts | 70° |
| 2026-05-05 16:54 | 50.04361 | 8.53346 | 372 ft | 27 kts | 69° |
| 2026-05-05 16:55 | 50.04402 | 8.53607 | 375 ft | 24 kts | 84° |
| 2026-05-05 16:55 | 50.04418 | 8.53859 | 375 ft | 23 kts | 84° |
| 2026-05-05 16:55 | 50.04434 | 8.54105 | 375 ft | 22 kts | 84° |
| 2026-05-05 16:55 | 50.04450 | 8.54343 | 374 ft | 22 kts | 83° |
| 2026-05-05 16:56 | 50.04428 | 8.54592 | 365 ft | 25 kts | 115° |
| 2026-05-05 16:56 | 50.04299 | 8.54781 | 357 ft | 24 kts | 156° |
| 2026-05-05 16:56 | 50.04158 | 8.54859 | 356 ft | 17 kts | 160° |
| 2026-05-05 16:56 | 50.04086 | 8.54900 | 352 ft | 6 kts | 159° |
| 2026-05-05 16:57 | 50.04081 | 8.54903 | 351 ft | 0 kts | 159° |
| 2026-05-05 16:57 | 50.04080 | 8.54904 | 351 ft | 1 kts | 159° |
| 2026-05-05 16:57 | 50.04055 | 8.54918 | 354 ft | 8 kts | 159° |
| 2026-05-05 16:57 | 50.03970 | 8.54969 | 356 ft | 19 kts | 159° |
| 2026-05-05 16:58 | 50.03845 | 8.55072 | 349 ft | 15 kts | 118° |
| 2026-05-05 16:58 | 50.03842 | 8.55124 | 349 ft | 2 kts | 63° |
| 2026-05-05 16:58 | 50.03860 | 8.55181 | 350 ft | 10 kts | 63° |
| 2026-05-05 16:58 | 50.03898 | 8.55322 | 352 ft | 19 kts | 71° |
| 2026-05-05 16:59 | 50.03952 | 8.55548 | 350 ft | 24 kts | 69° |
| 2026-05-05 16:59 | 50.04010 | 8.55788 | 351 ft | 23 kts | 69° |
| 2026-05-05 16:59 | 50.04063 | 8.56012 | 353 ft | 22 kts | 69° |
| 2026-05-05 16:59 | 50.04114 | 8.56227 | 356 ft | 21 kts | 69° |
| 2026-05-05 17:00 | 50.04163 | 8.56429 | 356 ft | 19 kts | 70° |
| 2026-05-05 17:00 | 50.04207 | 8.56614 | 356 ft | 18 kts | 69° |
| 2026-05-05 17:00 | 50.04246 | 8.56779 | 362 ft | 15 kts | 69° |
| 2026-05-05 17:00 | 50.04281 | 8.56923 | 359 ft | 14 kts | 70° |
| 2026-05-05 17:01 | 50.04314 | 8.57061 | 364 ft | 13 kts | 69° |
| 2026-05-05 17:01 | 50.04343 | 8.57187 | 363 ft | 14 kts | 70° |
| 2026-05-05 17:01 | 50.04386 | 8.57365 | 365 ft | 19 kts | 70° |
| 2026-05-05 17:01 | 50.04432 | 8.57557 | 365 ft | 18 kts | 69° |
| 2026-05-05 17:02 | 50.04471 | 8.57719 | 370 ft | 16 kts | 69° |
| 2026-05-05 17:02 | 50.04504 | 8.57857 | 367 ft | 13 kts | 70° |
| 2026-05-05 17:02 | 50.04519 | 8.57923 | 367 ft | 0 kts | 70° |
| 2026-05-05 17:03 | 50.04527 | 8.57954 | 364 ft | 7 kts | 70° |
| 2026-05-05 17:03 | 50.04579 | 8.58031 | 361 ft | 15 kts | 4° |
| 2026-05-05 17:03 | 50.04681 | 8.57976 | 359 ft | 16 kts | 340° |
| 2026-05-05 17:04 | 50.04783 | 8.57997 | 358 ft | 16 kts | 48° |
| 2026-05-05 17:04 | 50.04826 | 8.58150 | 360 ft | 14 kts | 70° |
| 2026-05-05 17:04 | 50.04860 | 8.58293 | 364 ft | 14 kts | 70° |
| 2026-05-05 17:04 | 50.04893 | 8.58434 | 366 ft | 14 kts | 70° |
| 2026-05-05 17:05 | 50.04928 | 8.58581 | 360 ft | 15 kts | 69° |
| 2026-05-05 17:05 | 50.04948 | 8.58662 | 365 ft | 7 kts | 69° |
| 2026-05-05 17:05 | 50.04966 | 8.58738 | 366 ft | 8 kts | 69° |
| 2026-05-05 17:05 | 50.04987 | 8.58826 | 364 ft | 9 kts | 69° |
| 2026-05-05 17:06 | 50.05011 | 8.58924 | 363 ft | 10 kts | 69° |
| 2026-05-05 17:06 | 50.05032 | 8.59012 | 360 ft | 7 kts | 71° |
| 2026-05-05 17:06 | 50.05014 | 8.59047 | 363 ft | 2 kts | 154° |
| 2026-05-05 17:06 | 50.05011 | 8.59048 | 362 ft | 0 kts | 159° |
| 2026-05-05 17:07 | 50.05007 | 8.59050 | 362 ft | 2 kts | 161° |
| 2026-05-05 17:07 | 50.04987 | 8.59060 | 365 ft | 4 kts | 159° |
| 2026-05-05 17:07 | 50.04972 | 8.59069 | 362 ft | 1 kts | 159° |
| 2026-05-05 17:07 | 50.04966 | 8.59072 | 365 ft | 1 kts | 159° |
| 2026-05-05 17:08 | 50.04960 | 8.59076 | 364 ft | 0 kts | 159° |
| 2026-05-05 17:08 | 50.04959 | 8.59077 | 366 ft | 0 kts | 160° |